createdAt,value
2023-12-24T00:59:13.286Z,12.98
2023-12-24T01:01:40.642Z,12.97
2023-12-24T01:04:07.253Z,12.96
2023-12-24T01:06:33.897Z,12.96
2023-12-24T01:09:00.487Z,13.00
2023-12-24T01:11:28.020Z,12.96
2023-12-24T01:13:54.654Z,12.96
2023-12-24T01:16:21.172Z,13.00
2023-12-24T01:18:49.035Z,13.01
2023-12-24T01:21:15.661Z,12.99
2023-12-24T01:23:42.273Z,13.00
2023-12-24T01:26:08.958Z,13.00
2023-12-24T01:28:35.510Z,12.99
2023-12-24T01:31:02.079Z,13.01
2023-12-24T01:33:29.246Z,12.98
2023-12-24T01:35:55.784Z,12.98
2023-12-24T01:38:22.440Z,12.97
2023-12-24T01:40:48.999Z,12.99
2023-12-24T01:43:15.629Z,13.00
2023-12-24T01:45:42.167Z,13.01
2023-12-24T01:48:08.798Z,13.02
2023-12-24T01:50:37.288Z,13.03
2023-12-24T01:53:05.064Z,13.04
2023-12-24T01:55:32.190Z,12.98
2023-12-24T01:57:59.566Z,12.98
2023-12-24T02:00:26.124Z,12.97
2023-12-24T02:02:53.159Z,12.97
2023-12-24T02:05:20.035Z,12.98
2023-12-24T02:07:48.327Z,12.97
2023-12-24T02:10:14.852Z,13.00
2023-12-24T02:12:41.473Z,12.99
2023-12-24T02:15:08.201Z,12.96
2023-12-24T02:17:35.688Z,12.97
2023-12-24T02:20:02.392Z,12.94
2023-12-24T02:22:29.228Z,12.94
2023-12-24T02:24:57.304Z,12.94
2023-12-24T02:27:27.587Z,12.94
2023-12-24T02:29:57.358Z,12.96
2023-12-24T02:32:25.971Z,12.86
2023-12-24T02:34:52.480Z,12.95
2023-12-24T02:37:19.185Z,12.93
2023-12-24T02:39:46.329Z,12.96
2023-12-24T02:42:12.920Z,12.96
2023-12-24T02:44:40.133Z,12.91
2023-12-24T02:47:06.811Z,12.97
2023-12-24T02:49:33.465Z,12.97
2023-12-24T02:51:59.946Z,12.98
2023-12-24T02:54:26.496Z,12.94
2023-12-24T02:56:53.079Z,12.99
2023-12-24T02:59:19.715Z,12.98
2023-12-24T03:01:46.223Z,13.02
2023-12-24T03:04:12.899Z,13.00
2023-12-24T03:06:39.441Z,13.01
2023-12-24T03:09:05.973Z,13.01
2023-12-24T03:11:32.555Z,13.01
2023-12-24T03:13:59.186Z,13.02
2023-12-24T03:16:26.363Z,13.00
2023-12-24T03:18:52.993Z,13.01
2023-12-24T03:21:19.592Z,13.00
2023-12-24T03:23:46.173Z,13.03
2023-12-24T03:26:20.428Z,13.03
2023-12-24T03:28:47.244Z,13.04
2023-12-24T03:31:16.894Z,13.05
2023-12-24T03:33:44.778Z,13.05
2023-12-24T03:36:14.791Z,13.05
2023-12-24T03:38:41.608Z,13.03
2023-12-24T03:41:08.321Z,13.02
2023-12-24T03:43:35.085Z,12.93
2023-12-24T03:46:01.710Z,13.03
2023-12-24T03:48:28.482Z,13.03
2023-12-24T03:50:55.082Z,13.02
2023-12-24T03:53:21.648Z,13.02
2023-12-24T03:55:48.226Z,13.05
2023-12-24T03:58:15.056Z,13.03
2023-12-24T04:00:41.780Z,13.04
2023-12-24T04:03:08.456Z,13.01
2023-12-24T04:05:35.058Z,13.03
2023-12-24T04:08:01.709Z,13.03
2023-12-24T04:10:28.279Z,13.02
2023-12-24T04:12:55.061Z,13.02
2023-12-24T04:15:21.826Z,12.99
2023-12-24T04:17:48.543Z,12.99
2023-12-24T04:20:15.296Z,12.98
2023-12-24T04:22:41.777Z,12.94
2023-12-24T04:25:08.481Z,12.95
2023-12-24T04:27:34.987Z,12.91
2023-12-24T04:30:01.497Z,12.94
2023-12-24T04:32:28.143Z,12.99
2023-12-24T04:34:54.692Z,12.98
2023-12-24T04:37:21.254Z,13.03
2023-12-24T04:39:47.770Z,13.03
2023-12-24T04:42:14.431Z,12.99
2023-12-24T04:44:41.010Z,13.01
2023-12-24T04:47:08.010Z,13.02
2023-12-24T04:49:34.765Z,13.03
2023-12-24T04:52:01.332Z,13.04
2023-12-24T04:54:28.510Z,13.02
2023-12-24T04:56:55.468Z,13.05
2023-12-24T04:59:22.158Z,13.04
2023-12-24T05:01:51.743Z,13.06
2023-12-24T05:04:18.511Z,13.07
2023-12-24T05:06:45.166Z,13.07
2023-12-24T05:09:11.708Z,13.07
2023-12-24T05:11:41.538Z,13.07
2023-12-24T05:14:08.453Z,13.06
2023-12-24T05:16:34.994Z,13.03
2023-12-24T05:19:01.678Z,13.07
2023-12-24T05:21:30.858Z,13.07
2023-12-24T05:23:57.799Z,13.11
2023-12-24T05:26:25.870Z,13.12
2023-12-24T05:28:55.468Z,13.02
2023-12-24T05:31:22.061Z,13.06
2023-12-24T05:33:48.628Z,13.09
2023-12-24T05:36:15.573Z,13.07
2023-12-24T05:38:42.392Z,13.13
2023-12-24T05:41:10.318Z,13.13
2023-12-24T05:43:37.350Z,13.11
2023-12-24T05:46:04.585Z,13.19
2023-12-24T05:48:31.173Z,13.18
2023-12-24T05:50:57.681Z,13.17
2023-12-24T05:53:24.205Z,13.22
2023-12-24T05:55:50.721Z,13.25
2023-12-24T05:58:19.087Z,13.27
2023-12-24T06:00:45.653Z,13.29
2023-12-24T06:03:12.177Z,13.20
2023-12-24T06:05:38.804Z,13.27
2023-12-24T06:08:05.754Z,13.32
2023-12-24T06:10:32.326Z,13.30
2023-12-24T06:12:58.886Z,13.32
2023-12-24T06:15:25.455Z,13.32
2023-12-24T06:17:52.415Z,13.32
2023-12-24T06:20:19.228Z,13.29
2023-12-24T06:22:45.811Z,13.33
2023-12-24T06:25:12.378Z,13.37
2023-12-24T06:27:38.956Z,13.34
2023-12-24T06:30:05.784Z,13.36
2023-12-24T06:32:32.399Z,13.35
2023-12-24T06:34:59.071Z,13.37
2023-12-24T06:37:25.607Z,13.41
2023-12-24T06:39:52.096Z,13.42
2023-12-24T06:42:18.657Z,13.45
2023-12-24T06:44:45.205Z,13.45
2023-12-24T06:47:11.836Z,13.47
2023-12-24T06:49:42.774Z,13.47
2023-12-24T06:52:09.252Z,13.46
2023-12-24T06:54:35.758Z,13.49
2023-12-24T06:57:02.254Z,13.47
2023-12-24T06:59:28.852Z,13.53
2023-12-24T07:01:55.544Z,13.48
2023-12-24T07:04:24.032Z,13.54
2023-12-24T07:06:51.951Z,13.53
2023-12-24T07:09:18.630Z,13.54
2023-12-24T07:11:45.211Z,13.58
2023-12-24T07:14:11.891Z,13.55
2023-12-24T07:16:40.908Z,13.50
2023-12-24T07:19:09.714Z,13.55
2023-12-24T07:21:36.269Z,13.56
2023-12-24T07:24:02.799Z,13.61
2023-12-24T07:26:29.394Z,13.61
2023-12-24T07:28:56.023Z,13.63
2023-12-24T07:31:22.693Z,13.64
2023-12-24T07:33:49.425Z,13.61
2023-12-24T07:36:16.030Z,13.65
2023-12-24T07:38:44.241Z,13.67
2023-12-24T07:41:12.091Z,13.61
2023-12-24T07:43:38.698Z,13.69
2023-12-24T07:46:05.283Z,13.67
2023-12-24T07:48:31.922Z,13.70
2023-12-24T07:50:58.588Z,13.69
2023-12-24T07:53:25.165Z,13.74
2023-12-24T07:55:51.765Z,13.73
2023-12-24T07:58:18.447Z,13.77
2023-12-24T08:00:45.226Z,13.79
2023-12-24T08:03:11.856Z,13.81
2023-12-24T08:05:38.546Z,13.83
2023-12-24T08:08:05.273Z,13.82
2023-12-24T08:10:31.982Z,13.83
2023-12-24T08:13:05.284Z,13.89
2023-12-24T08:15:38.569Z,13.90
2023-12-24T08:18:05.422Z,13.93
2023-12-24T08:20:32.149Z,13.96
2023-12-24T08:22:58.843Z,13.95
2023-12-24T08:25:25.392Z,13.98
2023-12-24T08:27:52.826Z,14.02
2023-12-24T08:30:19.668Z,13.98
2023-12-24T08:32:47.526Z,14.04
2023-12-24T08:35:14.422Z,14.01
2023-12-24T08:37:41.260Z,14.04
2023-12-24T08:40:08.259Z,14.09
2023-12-24T08:42:35.081Z,14.12
2023-12-24T08:45:01.774Z,14.10
2023-12-24T08:47:28.601Z,14.18
2023-12-24T08:49:55.344Z,14.20
2023-12-24T08:52:22.481Z,14.21
2023-12-24T08:54:49.114Z,14.25
2023-12-24T08:57:16.261Z,14.25
2023-12-24T08:59:42.978Z,14.26
2023-12-24T09:02:09.610Z,14.27
2023-12-24T09:04:36.263Z,14.20
2023-12-24T09:07:02.949Z,14.31
2023-12-24T09:09:29.658Z,14.33
2023-12-24T09:11:56.188Z,14.37
2023-12-24T09:14:22.855Z,14.36
2023-12-24T09:16:49.523Z,14.38
2023-12-24T09:19:16.300Z,14.43
2023-12-24T09:21:43.025Z,14.40
2023-12-24T09:24:09.571Z,14.53
2023-12-24T09:26:36.752Z,14.54
2023-12-24T09:29:03.469Z,14.61
2023-12-24T09:31:30.069Z,14.66
2023-12-24T09:33:56.754Z,14.65
2023-12-24T09:36:23.475Z,14.66
2023-12-24T09:38:50.014Z,14.71
2023-12-24T09:41:18.412Z,14.75
2023-12-24T09:43:44.949Z,14.75
2023-12-24T09:46:11.426Z,14.79
2023-12-24T09:48:38.040Z,14.77
2023-12-24T09:51:04.949Z,14.79
2023-12-24T09:53:32.398Z,14.77
2023-12-24T09:55:59.883Z,14.78
2023-12-24T09:58:26.402Z,14.78
2023-12-24T10:00:53.061Z,14.76
2023-12-24T10:03:19.642Z,14.77
2023-12-24T10:06:05.720Z,14.79
2023-12-24T10:08:32.699Z,14.77
2023-12-24T10:11:12.669Z,14.73
2023-12-24T10:13:39.222Z,14.85
2023-12-24T10:16:06.416Z,14.86
2023-12-24T10:18:33.726Z,14.87
2023-12-24T10:21:27.053Z,14.84
2023-12-24T10:23:53.635Z,14.87
2023-12-24T10:26:22.046Z,14.95
2023-12-24T10:28:55.643Z,14.91
2023-12-24T10:31:28.766Z,14.97
2023-12-24T10:33:58.849Z,14.97
2023-12-24T10:36:25.380Z,14.98
2023-12-24T10:38:51.944Z,15.02
2023-12-24T10:41:18.524Z,15.06
2023-12-24T10:43:45.158Z,15.04
2023-12-24T10:46:11.693Z,15.09
2023-12-24T10:48:38.301Z,15.11
2023-12-24T10:51:05.029Z,15.10
2023-12-24T10:53:31.746Z,15.06
2023-12-24T10:56:04.011Z,15.15
2023-12-24T10:58:41.744Z,15.16
2023-12-24T11:01:09.894Z,15.18
2023-12-24T11:03:44.351Z,15.18
2023-12-24T11:06:11.239Z,15.21
2023-12-24T11:08:37.876Z,15.17
2023-12-24T11:11:05.839Z,15.23
2023-12-24T11:13:37.861Z,15.20
2023-12-24T11:16:07.279Z,15.21
2023-12-24T11:18:40.749Z,15.25
2023-12-24T11:21:07.260Z,15.27
2023-12-24T11:23:33.931Z,15.30
2023-12-24T11:26:00.696Z,15.28
2023-12-24T11:28:27.205Z,15.28
2023-12-24T11:30:53.740Z,15.30
2023-12-24T11:33:29.630Z,15.31
2023-12-24T11:35:57.070Z,15.33
2023-12-24T11:38:35.578Z,15.32
2023-12-24T11:41:18.333Z,15.36
2023-12-24T11:43:54.070Z,15.37
2023-12-24T11:46:21.135Z,15.38
2023-12-24T11:48:47.839Z,15.38
2023-12-24T11:51:14.676Z,15.31
2023-12-24T11:53:41.990Z,15.39
2023-12-24T11:56:09.711Z,15.40
2023-12-24T11:58:39.717Z,15.43
2023-12-24T12:01:06.498Z,15.40
2023-12-24T12:03:33.912Z,15.41
2023-12-24T12:06:01.195Z,15.42
2023-12-24T12:08:31.737Z,15.42
2023-12-24T12:10:58.876Z,15.44
2023-12-24T12:13:25.660Z,15.45
2023-12-24T12:15:52.517Z,15.39
2023-12-24T12:18:19.714Z,15.42
2023-12-24T12:20:46.877Z,15.44
2023-12-24T12:23:17.729Z,15.43
2023-12-24T12:25:45.174Z,15.43
2023-12-24T12:28:11.876Z,15.43
2023-12-24T12:30:38.546Z,15.42
2023-12-24T12:33:05.367Z,15.43
2023-12-24T12:35:32.132Z,15.38
2023-12-24T12:37:58.757Z,15.44
2023-12-24T12:40:35.610Z,15.39
2023-12-24T12:43:09.615Z,15.44
2023-12-24T12:45:37.427Z,15.48
2023-12-24T12:48:04.416Z,15.48
2023-12-24T12:50:31.083Z,15.51
2023-12-24T12:52:58.281Z,15.47
2023-12-24T12:55:24.785Z,15.51
2023-12-24T12:57:52.896Z,15.50
2023-12-24T13:00:21.155Z,15.52
2023-12-24T13:02:47.960Z,15.53
2023-12-24T13:05:33.718Z,15.51
2023-12-24T13:08:01.546Z,15.53
2023-12-24T13:10:39.609Z,15.56
2023-12-24T19:03:02.637Z,16.31
2023-12-24T19:05:29.325Z,16.35
2023-12-24T19:07:55.991Z,16.37
2023-12-24T19:10:22.574Z,16.39
2023-12-24T19:12:49.068Z,16.37
2023-12-24T19:15:15.588Z,16.31
2023-12-24T19:17:42.335Z,16.37
2023-12-24T19:20:09.182Z,16.42
2023-12-24T19:22:37.158Z,16.45
2023-12-24T19:25:03.855Z,16.32
2023-12-24T19:27:30.532Z,16.37
2023-12-24T19:29:57.042Z,16.40
2023-12-24T19:32:23.686Z,16.35
2023-12-24T19:34:50.324Z,16.46
2023-12-24T19:37:16.843Z,16.39
2023-12-24T19:39:43.343Z,16.43
2023-12-24T19:42:09.842Z,16.47
2023-12-24T19:44:36.395Z,16.46
2023-12-24T19:47:02.988Z,16.54
2023-12-24T19:49:29.607Z,16.54
2023-12-24T19:51:59.131Z,16.48
2023-12-24T19:54:25.653Z,16.57
2023-12-24T19:56:53.101Z,16.55
2023-12-24T19:59:19.807Z,16.52
2023-12-24T20:01:46.573Z,16.55
2023-12-24T20:04:13.675Z,16.55
2023-12-24T20:06:40.638Z,16.58
2023-12-24T20:09:07.945Z,16.56
2023-12-24T20:11:34.745Z,16.58
2023-12-24T20:14:01.381Z,16.61
2023-12-24T20:16:27.951Z,16.60
2023-12-24T20:18:54.742Z,16.54
2023-12-24T20:21:21.366Z,16.61
2023-12-24T20:23:50.157Z,16.58
2023-12-24T20:26:16.881Z,16.68
2023-12-24T20:28:43.561Z,16.72
2023-12-24T20:31:14.274Z,16.71
2023-12-24T20:33:47.056Z,16.74
2023-12-24T20:36:15.972Z,16.70
2023-12-24T20:38:42.549Z,16.77
2023-12-24T20:41:09.042Z,16.74
2023-12-24T20:43:35.570Z,16.74
2023-12-24T20:46:02.166Z,16.83
2023-12-24T20:48:28.904Z,16.81
2023-12-24T20:50:55.842Z,16.78
2023-12-24T20:53:23.267Z,16.84
2023-12-24T20:55:49.899Z,16.84
2023-12-24T20:58:16.471Z,16.88
2023-12-24T21:00:43.071Z,16.83
2023-12-24T21:03:09.719Z,16.82
2023-12-24T21:05:37.302Z,16.68
2023-12-24T21:08:04.094Z,16.78
2023-12-24T21:10:31.735Z,16.69
2023-12-24T21:12:58.293Z,16.76
2023-12-24T21:15:25.015Z,16.75
2023-12-24T21:17:53.017Z,16.72
2023-12-24T21:20:19.602Z,16.73
2023-12-24T21:22:46.194Z,16.73
2023-12-24T21:25:12.722Z,16.71
2023-12-24T21:27:39.267Z,16.63
2023-12-24T21:30:06.134Z,16.76
2023-12-24T21:32:32.754Z,16.70
2023-12-24T21:35:00.704Z,16.77
2023-12-24T21:37:27.262Z,16.64
2023-12-24T21:39:53.894Z,16.77
2023-12-24T21:42:20.391Z,16.78
2023-12-24T21:44:46.955Z,16.79
2023-12-24T21:47:13.519Z,16.79
2023-12-24T21:49:40.091Z,16.83
2023-12-24T21:52:06.792Z,16.86
2023-12-24T21:54:35.706Z,16.87
2023-12-24T21:57:02.817Z,16.88
2023-12-24T21:59:29.494Z,16.88
2023-12-24T22:01:56.200Z,16.93
2023-12-24T22:04:22.952Z,16.77
2023-12-24T22:06:51.132Z,16.91
2023-12-24T22:09:17.742Z,16.92
2023-12-24T22:11:44.415Z,16.93
2023-12-24T22:14:10.975Z,16.91
2023-12-24T22:16:38.031Z,16.81
2023-12-24T22:19:04.672Z,16.87
2023-12-24T22:21:31.383Z,16.92
2023-12-24T22:23:58.293Z,16.92
2023-12-24T22:26:25.055Z,16.86
2023-12-24T22:28:51.666Z,16.89
2023-12-24T22:44:11.112Z,16.78
2023-12-24T22:46:37.897Z,16.75
2023-12-24T22:49:04.466Z,16.75
2023-12-24T22:51:31.038Z,16.64
2023-12-24T22:53:57.639Z,16.74
2023-12-24T22:56:24.207Z,16.75
2023-12-24T22:58:50.849Z,16.75
2023-12-24T23:01:17.483Z,16.71
2023-12-24T23:03:43.957Z,16.70
2023-12-24T23:06:11.990Z,16.65
2023-12-24T23:08:38.776Z,16.67
2023-12-24T23:11:05.394Z,16.69
2023-12-24T23:13:32.148Z,16.62
2023-12-24T23:15:58.812Z,16.68
2023-12-24T23:18:26.028Z,16.65
2023-12-24T23:20:52.734Z,16.71
2023-12-24T23:23:19.347Z,16.60
2023-12-24T23:25:45.917Z,16.61
2023-12-24T23:28:12.485Z,16.66
